Time;durP1;ratioP1;P1;durP2;ratioP2;P2;SDS_P1;SDS_P2;PMS_P1;PMS_P2;Temp;Humidity;BMP_temperature;BMP_pressure;BME280_temperature;BME280_humidity;BME280_pressure;Samples;Min_cycle;Max_cycle;Signal;HPM_P1;HPM_P2
2023/09/09 00:00:58;;;;;;;703.15;518.67;;;17.90;99.90;;;;;;6278799;22;20069;-85
2023/09/09 00:03:25;;;;;;;716.60;520.58;;;17.80;99.90;;;;;;6251094;22;20015;-84
2023/09/09 00:05:51;;;;;;;871.78;769.95;;;17.90;99.90;;;;;;6250290;22;20016;-83
2023/09/09 00:08:18;;;;;;;872.40;769.60;;;17.80;99.90;;;;;;6225333;22;20026;-83
2023/09/09 00:10:45;;;;;;;718.85;515.58;;;17.80;99.90;;;;;;6278190;22;20026;-85
2023/09/09 00:13:14;;;;;;;874.42;770.72;;;17.80;99.90;;;;;;6277932;22;20039;-86
2023/09/09 00:15:40;;;;;;;707.78;524.85;;;17.70;99.90;;;;;;6277428;22;20030;-83
2023/09/09 00:18:05;;;;;;;878.83;763.97;;;17.80;99.90;;;;;;6250595;22;20019;-84
2023/09/09 00:20:36;;;;;;;874.20;762.00;;;17.80;99.90;;;;;;6278057;22;20098;-83
2023/09/09 00:23:08;;;;;;;727.67;522.92;;;17.80;99.90;;;;;;6250466;22;20453;-82
2023/09/09 00:25:37;;;;;;;724.55;515.72;;;17.70;99.90;;;;;;6277394;22;20438;-83
2023/09/09 00:28:04;;;;;;;873.08;760.40;;;17.70;99.90;;;;;;6249362;22;20023;-84
2023/09/09 00:30:30;;;;;;;864.85;770.03;;;17.70;99.90;;;;;;6250678;22;20031;-86
2023/09/09 00:32:58;;;;;;;682.25;508.52;;;17.70;99.90;;;;;;6250718;22;20023;-82
2023/09/09 00:35:27;;;;;;;858.53;755.42;;;17.70;99.90;;;;;;6250767;22;20023;-83
2023/09/09 00:37:53;;;;;;;710.72;508.85;;;17.70;99.90;;;;;;6250712;22;20086;-84
2023/09/09 00:40:19;;;;;;;709.00;514.60;;;17.60;99.90;;;;;;6278009;22;20019;-83
2023/09/09 00:42:45;;;;;;;853.65;756.78;;;17.60;99.90;;;;;;6277194;22;20071;-82
2023/09/09 00:45:13;;;;;;;852.60;760.92;;;17.80;99.90;;;;;;6276980;22;20016;-83
2023/09/09 00:47:39;;;;;;;851.42;762.67;;;17.60;99.90;;;;;;6250296;22;20023;-83
2023/09/09 00:50:09;;;;;;;846.10;757.08;;;17.60;99.90;;;;;;6225045;22;20077;-84
2023/09/09 00:52:39;;;;;;;844.78;756.70;;;17.50;99.90;;;;;;6250446;22;20462;-83
2023/09/09 00:55:10;;;;;;;640.75;504.73;;;17.50;99.90;;;;;;6277457;22;20015;-83
2023/09/09 00:57:36;;;;;;;845.55;756.95;;;17.50;99.90;;;;;;6224769;22;20393;-83
2023/09/09 01:00:09;;;;;;;643.50;505.75;;;17.50;99.90;;;;;;6276935;22;20450;-82
2023/09/09 01:02:39;;;;;;;631.83;500.48;;;17.50;99.90;;;;;;6277596;22;20008;-83
2023/09/09 01:05:09;;;;;;;631.70;492.75;;;17.50;99.90;;;;;;6276793;22;20057;-82
2023/09/09 01:07:48;;;;;;;854.75;766.15;;;17.50;99.90;;;;;;6249810;22;20456;-82
2023/09/09 01:10:16;;;;;;;637.55;512.42;;;17.40;99.90;;;;;;6277123;22;20019;-83
2023/09/09 01:12:43;;;;;;;633.97;504.40;;;17.40;99.90;;;;;;6249442;22;20015;-82
2023/09/09 01:15:13;;;;;;;844.60;757.25;;;17.40;99.90;;;;;;6277298;22;20026;-83
2023/09/09 01:17:39;;;;;;;625.40;500.40;;;17.50;99.90;;;;;;6276986;22;20042;-84
2023/09/09 01:20:13;;;;;;;846.70;758.60;;;17.50;99.90;;;;;;6249437;22;20019;-84
2023/09/09 01:22:48;;;;;;;641.10;497.17;;;17.40;99.90;;;;;;6277757;22;20068;-84
2023/09/09 01:25:14;;;;;;;671.22;501.35;;;17.40;99.90;;;;;;6276958;22;20026;-83
2023/09/09 01:27:41;;;;;;;844.70;753.22;;;17.40;99.90;;;;;;6250548;22;20095;-83
2023/09/09 01:30:08;;;;;;;840.13;749.72;;;17.30;99.90;;;;;;6249941;22;20022;-82
2023/09/09 01:32:35;;;;;;;639.45;487.45;;;17.30;99.90;;;;;;6250298;22;20016;-83
2023/09/09 01:35:06;;;;;;;837.83;747.55;;;17.30;99.90;;;;;;6249481;22;20019;-83
2023/09/09 01:37:33;;;;;;;844.38;755.42;;;17.30;99.90;;;;;;6250089;22;20015;-83
2023/09/09 01:40:09;;;;;;;843.90;754.42;;;17.30;99.90;;;;;;6249916;22;20023;-83
2023/09/09 01:42:37;;;;;;;834.20;744.45;;;17.30;99.90;;;;;;6250098;22;20020;-83
2023/09/09 01:45:03;;;;;;;833.53;744.40;;;17.30;99.90;;;;;;6249999;22;20338;-83
2023/09/09 01:47:29;;;;;;;656.00;489.58;;;17.20;99.90;;;;;;6250249;22;20016;-84
2023/09/09 01:49:55;;;;;;;652.45;495.10;;;17.20;99.90;;;;;;6249628;22;20050;-83
2023/09/09 01:52:21;;;;;;;837.80;748.67;;;17.20;99.90;;;;;;6250108;22;20065;-83
2023/09/09 01:54:46;;;;;;;645.88;498.15;;;17.20;99.90;;;;;;6249758;22;20061;-83
2023/09/09 01:57:14;;;;;;;635.45;497.60;;;17.20;99.90;;;;;;6250139;22;20011;-83
2023/09/09 01:59:40;;;;;;;837.33;752.50;;;17.10;99.90;;;;;;6276916;22;20019;-83
2023/09/09 02:02:09;;;;;;;605.70;492.48;;;17.20;99.90;;;;;;6223872;22;20012;-84
2023/09/09 02:04:35;;;;;;;589.95;490.58;;;17.10;99.90;;;;;;6276876;22;20015;-84
2023/09/09 02:07:00;;;;;;;822.05;739.17;;;17.10;99.90;;;;;;6250001;22;20022;-84
2023/09/09 02:09:26;;;;;;;597.28;491.77;;;17.10;99.90;;;;;;6250669;22;20034;-83
2023/09/09 02:11:55;;;;;;;817.72;738.20;;;17.10;99.90;;;;;;6276770;22;20022;-83
2023/09/09 02:14:20;;;;;;;818.58;740.20;;;17.10;99.90;;;;;;6250018;22;20022;-83
2023/09/09 02:16:46;;;;;;;522.38;452.42;;;17.10;99.90;;;;;;6250010;22;20023;-84
2023/09/09 02:19:12;;;;;;;807.38;733.63;;;17.00;99.90;;;;;;6277135;22;20088;-83
2023/09/09 02:21:40;;;;;;;803.85;730.70;;;17.00;99.90;;;;;;6250271;22;20055;-83
2023/09/09 02:24:06;;;;;;;808.33;735.67;;;17.00;99.90;;;;;;6276632;22;20071;-83
2023/09/09 02:26:32;;;;;;;809.60;736.45;;;17.00;99.90;;;;;;6249359;22;20047;-83
2023/09/09 02:28:58;;;;;;;534.95;477.92;;;17.00;99.90;;;;;;6250156;22;20304;-82
2023/09/09 02:31:24;;;;;;;803.95;730.25;;;17.00;99.90;;;;;;6250011;22;20015;-84
2023/09/09 02:33:49;;;;;;;525.60;470.33;;;17.00;99.90;;;;;;6224386;22;20020;-85
2023/09/09 02:36:15;;;;;;;521.63;465.85;;;16.90;99.90;;;;;;6250089;22;20424;-83
2023/09/09 02:38:41;;;;;;;528.83;472.30;;;17.00;99.90;;;;;;6250031;22;20043;-83
2023/09/09 02:41:07;;;;;;;529.88;473.38;;;16.90;99.90;;;;;;6276917;22;20506;-83
2023/09/09 02:43:33;;;;;;;800.47;729.75;;;16.90;99.90;;;;;;6249505;22;20342;-84
2023/09/09 02:45:58;;;;;;;522.40;468.30;;;16.90;99.90;;;;;;6249763;22;20027;-83
2023/09/09 02:48:26;;;;;;;802.28;731.88;;;16.90;99.90;;;;;;6277170;22;20026;-83
2023/09/09 02:50:52;;;;;;;530.22;476.27;;;16.90;99.90;;;;;;6223889;22;20065;-83
2023/09/09 02:53:18;;;;;;;518.85;466.70;;;16.90;99.90;;;;;;6277249;22;20430;-83
2023/09/09 02:55:44;;;;;;;512.08;460.42;;;16.90;99.90;;;;;;6249778;22;20510;-83
2023/09/09 02:58:14;;;;;;;793.42;721.28;;;16.90;99.90;;;;;;6249267;22;20483;-83
2023/09/09 03:00:40;;;;;;;494.92;440.88;;;16.80;99.90;;;;;;6250018;22;20020;-83
2023/09/09 03:03:06;;;;;;;495.77;443.40;;;16.90;99.90;;;;;;6276675;22;20016;-83
2023/09/09 03:05:36;;;;;;;525.63;471.08;;;16.80;99.90;;;;;;6250055;22;20488;-83
2023/09/09 03:08:03;;;;;;;801.38;729.90;;;17.20;99.90;;;;;;6248366;22;20065;-83
2023/09/09 03:10:29;;;;;;;486.73;433.25;;;16.70;99.90;;;;;;6276994;22;20016;-83
2023/09/09 03:12:57;;;;;;;517.35;462.95;;;16.80;99.90;;;;;;6249630;22;20019;-83
2023/09/09 03:15:23;;;;;;;520.70;465.55;;;16.80;99.90;;;;;;6249725;22;20507;-83
2023/09/09 03:17:50;;;;;;;518.30;465.13;;;16.80;99.90;;;;;;6249248;22;20458;-83
2023/09/09 03:20:16;;;;;;;489.63;436.67;;;16.80;99.90;;;;;;6249569;22;20097;-83
2023/09/09 03:22:42;;;;;;;520.88;465.83;;;16.80;99.90;;;;;;6276780;22;20012;-83
2023/09/09 03:25:08;;;;;;;506.77;452.75;;;16.80;99.90;;;;;;6249718;22;20019;-84
2023/09/09 03:27:37;;;;;;;790.08;719.65;;;16.80;99.90;;;;;;6251159;22;20015;-83
2023/09/09 03:30:04;;;;;;;514.80;461.40;;;16.80;99.90;;;;;;6251179;22;20015;-83
2023/09/09 03:32:30;;;;;;;787.50;717.92;;;16.80;99.90;;;;;;6251180;22;20035;-83
2023/09/09 03:34:58;;;;;;;503.92;451.58;;;16.80;99.90;;;;;;6251684;22;20067;-83
2023/09/09 03:37:24;;;;;;;486.83;436.60;;;16.80;99.90;;;;;;6278823;22;20054;-84
2023/09/09 03:39:50;;;;;;;782.67;714.50;;;16.80;99.90;;;;;;6225921;22;20019;-83
2023/09/09 03:42:16;;;;;;;784.10;716.40;;;16.80;99.90;;;;;;6250912;22;20027;-83
2023/09/09 03:44:42;;;;;;;783.15;715.40;;;16.80;99.90;;;;;;6250786;22;20098;-84
2023/09/09 03:47:08;;;;;;;475.55;425.92;;;16.70;99.90;;;;;;6278119;22;20015;-83
2023/09/09 03:49:33;;;;;;;515.13;463.92;;;16.70;99.90;;;;;;6250776;22;20019;-83
2023/09/09 03:51:59;;;;;;;788.50;720.45;;;16.80;99.90;;;;;;6225562;22;20016;-83
2023/09/09 03:54:25;;;;;;;784.95;716.50;;;16.70;99.90;;;;;;6250921;22;20023;-83
2023/09/09 03:56:51;;;;;;;784.13;716.28;;;16.70;99.90;;;;;;6277675;22;20007;-84
2023/09/09 03:59:16;;;;;;;472.00;422.20;;;16.70;99.90;;;;;;6278121;22;20019;-83
2023/09/09 04:01:42;;;;;;;509.50;457.92;;;16.70;99.90;;;;;;6278366;22;20112;-84
2023/09/09 04:04:08;;;;;;;489.58;438.60;;;16.70;99.90;;;;;;6277706;22;20026;-83
2023/09/09 04:06:34;;;;;;;475.33;425.02;;;16.70;99.90;;;;;;6250629;22;20046;-84
2023/09/09 04:08:59;;;;;;;477.70;427.30;;;16.70;99.90;;;;;;6250785;22;20020;-83
2023/09/09 04:11:25;;;;;;;758.00;691.50;;;16.70;99.90;;;;;;6278340;22;20016;-83
2023/09/09 04:13:52;;;;;;;506.85;454.52;;;16.70;99.90;;;;;;6250503;22;20020;-83
2023/09/09 04:16:17;;;;;;;795.22;726.65;;;16.60;99.90;;;;;;6277306;22;20051;-83
2023/09/09 04:18:43;;;;;;;786.65;717.55;;;16.60;99.90;;;;;;6225039;22;20469;-84
2023/09/09 04:21:09;;;;;;;784.00;715.03;;;16.60;99.90;;;;;;6250644;22;20027;-84
2023/09/09 04:23:35;;;;;;;790.05;720.92;;;16.60;99.90;;;;;;6250503;22;20016;-83
2023/09/09 04:26:00;;;;;;;767.50;699.80;;;16.60;99.90;;;;;;6250742;22;20020;-83
2023/09/09 04:28:27;;;;;;;498.40;446.98;;;16.60;99.90;;;;;;6249918;22;20012;-83
2023/09/09 04:30:53;;;;;;;778.65;711.05;;;16.60;99.90;;;;;;6250244;22;20016;-83
2023/09/09 04:33:18;;;;;;;782.28;714.50;;;16.60;99.90;;;;;;6250213;22;20019;-83
2023/09/09 04:35:45;;;;;;;486.33;435.58;;;16.60;99.90;;;;;;6276916;22;20047;-84
2023/09/09 04:38:10;;;;;;;776.45;708.50;;;16.60;99.90;;;;;;6224467;22;20074;-83
2023/09/09 04:40:39;;;;;;;777.60;710.90;;;16.60;99.90;;;;;;6277453;22;20012;-85
2023/09/09 04:43:04;;;;;;;512.45;459.92;;;16.50;99.90;;;;;;6250084;22;20020;-83
2023/09/09 04:45:30;;;;;;;506.10;454.60;;;16.50;99.90;;;;;;6277597;22;20019;-83
2023/09/09 04:47:56;;;;;;;473.80;422.88;;;16.50;99.90;;;;;;6249971;22;20019;-84
2023/09/09 04:50:22;;;;;;;782.80;714.72;;;16.50;99.90;;;;;;6250251;22;20038;-83
2023/09/09 04:52:48;;;;;;;790.20;721.83;;;16.40;99.90;;;;;;6276885;22;20011;-85
2023/09/09 04:55:14;;;;;;;476.27;425.92;;;16.50;99.90;;;;;;6248832;22;20047;-83
2023/09/09 04:57:40;;;;;;;472.83;423.27;;;16.50;99.90;;;;;;6277194;22;20323;-83
2023/09/09 05:00:10;;;;;;;470.13;420.98;;;16.50;99.90;;;;;;6250400;22;20038;-84
2023/09/09 05:02:37;;;;;;;473.20;424.23;;;16.50;99.90;;;;;;6277284;22;20020;-83
2023/09/09 05:05:05;;;;;;;468.85;420.33;;;16.50;99.90;;;;;;6277585;22;20426;-83
2023/09/09 05:07:35;;;;;;;491.90;441.33;;;16.50;99.90;;;;;;6277558;22;20050;-83
2023/09/09 05:10:04;;;;;;;774.08;708.25;;;16.40;99.90;;;;;;6250319;22;20020;-84
2023/09/09 05:12:36;;;;;;;772.95;707.00;;;16.50;99.90;;;;;;6277175;22;20020;-83
2023/09/09 05:15:03;;;;;;;771.65;705.50;;;16.50;99.90;;;;;;6277315;22;20022;-84
2023/09/09 05:17:29;;;;;;;777.50;712.80;;;16.50;99.90;;;;;;6277242;22;20020;-85
2023/09/09 05:19:55;;;;;;;492.90;443.88;;;16.50;99.90;;;;;;6250624;22;20027;-83
2023/09/09 05:22:20;;;;;;;771.65;706.03;;;16.50;99.90;;;;;;6277766;22;20020;-83
2023/09/09 05:24:46;;;;;;;765.45;701.53;;;16.50;99.90;;;;;;6277098;22;20024;-83
2023/09/09 05:27:12;;;;;;;462.25;415.60;;;16.50;99.90;;;;;;6249670;22;20012;-83
2023/09/09 05:29:38;;;;;;;767.30;702.28;;;16.50;99.90;;;;;;6249857;22;20019;-83
2023/09/09 05:32:04;;;;;;;773.38;708.58;;;16.50;99.90;;;;;;6250104;22;20422;-83
2023/09/09 05:34:30;;;;;;;466.90;420.25;;;16.50;99.90;;;;;;6249753;22;20019;-84
2023/09/09 05:36:56;;;;;;;459.55;413.33;;;16.50;99.90;;;;;;6224445;22;20120;-83
2023/09/09 05:39:21;;;;;;;754.10;690.70;;;16.60;99.90;;;;;;6225584;22;20019;-83
2023/09/09 05:41:47;;;;;;;466.23;419.33;;;16.60;99.90;;;;;;6250144;22;20016;-84
2023/09/09 05:44:13;;;;;;;464.05;417.10;;;16.60;99.90;;;;;;6249656;22;20094;-83
2023/09/09 05:46:39;;;;;;;748.03;685.28;;;16.60;99.90;;;;;;6276882;22;20488;-84
2023/09/09 05:49:05;;;;;;;457.42;411.27;;;16.70;99.90;;;;;;6276704;22;20072;-83
2023/09/09 05:51:31;;;;;;;496.83;448.17;;;16.70;99.90;;;;;;6224464;22;20452;-84
2023/09/09 05:53:56;;;;;;;771.40;706.90;;;16.70;99.90;;;;;;6224316;22;20016;-84
2023/09/09 05:56:22;;;;;;;754.28;692.17;;;16.80;99.90;;;;;;6249750;22;20438;-84
2023/09/09 05:58:48;;;;;;;753.85;690.58;;;16.80;99.90;;;;;;6250407;22;20012;-83
2023/09/09 06:01:14;;;;;;;755.45;692.40;;;16.90;99.90;;;;;;6277639;22;20022;-83
2023/09/09 06:03:39;;;;;;;773.70;709.28;;;16.90;99.90;;;;;;6249574;22;20046;-84
2023/09/09 06:06:06;;;;;;;776.30;711.58;;;17.00;99.90;;;;;;6249478;22;20018;-83
2023/09/09 06:08:32;;;;;;;776.92;712.30;;;17.10;99.90;;;;;;6224295;22;20020;-83
2023/09/09 06:10:58;;;;;;;773.50;709.03;;;17.10;99.90;;;;;;6277280;22;20023;-83
2023/09/09 06:13:24;;;;;;;780.15;715.67;;;17.20;99.90;;;;;;6276571;22;20389;-83
2023/09/09 06:15:50;;;;;;;500.17;452.63;;;17.30;99.90;;;;;;6276645;22;20016;-83
2023/09/09 06:18:15;;;;;;;779.22;715.25;;;17.40;99.90;;;;;;6275999;22;20085;-83
2023/09/09 06:20:48;;;;;;;779.45;714.90;;;17.50;99.90;;;;;;6249353;22;20015;-83
2023/09/09 06:23:15;;;;;;;775.80;712.15;;;17.60;99.90;;;;;;6276378;22;20016;-83
2023/09/09 06:25:44;;;;;;;778.15;715.72;;;17.70;99.90;;;;;;6249055;22;20020;-83
2023/09/09 06:28:10;;;;;;;779.20;717.15;;;17.80;99.90;;;;;;6248757;22;20400;-84
2023/09/09 06:30:36;;;;;;;501.73;455.52;;;17.90;99.90;;;;;;6276662;22;20016;-83
2023/09/09 06:33:04;;;;;;;510.30;464.02;;;18.00;99.90;;;;;;6249288;22;20472;-84
2023/09/09 06:35:30;;;;;;;500.48;455.30;;;18.10;99.90;;;;;;6276452;22;20026;-84
2023/09/09 06:37:56;;;;;;;508.90;463.92;;;18.20;99.90;;;;;;6249799;22;20015;-84
2023/09/09 06:40:22;;;;;;;783.88;721.53;;;18.30;99.90;;;;;;6223887;22;20097;-84
2023/09/09 06:51:01;;;;;;;792.00;729.63;;;18.80;99.90;;;;;;6229013;22;20032;-94
2023/09/09 07:47:32;;;;;;;629.40;547.50;;;21.80;99.90;;;;;;6178638;23;20075;-87
2023/09/09 07:50:01;;;;;;;939.50;840.53;;;22.00;99.90;;;;;;6182089;23;20252;-85
2023/09/09 07:52:29;;;;;;;741.20;568.47;;;22.20;99.90;;;;;;6218316;22;20541;-87
2023/09/09 08:19:56;;;;;;;751.47;595.10;;;23.60;99.90;;;;;;6314565;22;20027;-91
2023/09/09 10:25:15;;;;;;;;;;;;;;;;;;;;;
2023/09/09 11:26:50;;;;;;;1030.82;954.47;;;30.10;99.90;;;;;;6265094;22;20403;-93
2023/09/09 11:34:31;;;;;;;;;;;;;;;;;;;;;
2023/09/09 13:26:02;;;;;;;1173.03;999.90;;;31.70;96.90;;;;;;6267557;22;20023;-90
2023/09/09 13:29:03;;;;;;;1165.05;999.90;;;31.70;97.40;;;;;;6186664;23;20029;-90
2023/09/09 13:40:50;;;;;;;1301.53;999.90;;;32.10;96.00;;;;;;6200268;22;20790;-86
2023/09/09 13:43:42;;;;;;;1084.93;773.95;;;32.00;96.40;;;;;;6171930;23;20017;-90
2023/09/09 13:46:36;;;;;;;1069.47;789.97;;;31.90;96.50;;;;;;6171402;23;20016;-90
2023/09/09 13:49:20;;;;;;;1248.78;999.90;;;31.70;96.10;;;;;;6125543;23;20041;-81
2023/09/09 13:51:46;;;;;;;1005.22;760.10;;;31.40;95.50;;;;;;6103289;23;20018;-87
2023/09/09 13:54:11;;;;;;;998.38;753.28;;;31.30;96.70;;;;;;6103241;23;20081;-87
2023/09/09 14:07:22;;;;;;;1115.35;999.90;;;31.20;97.50;;;;;;5111098;27;20125;-87
2023/09/09 14:09:48;;;;;;;1102.25;998.70;;;30.90;97.00;;;;;;5093298;28;20143;-84
2023/09/09 14:12:16;;;;;;;800.53;725.13;;;30.90;97.60;;;;;;5109787;28;20600;-87
2023/09/09 14:14:42;;;;;;;788.85;717.60;;;30.60;98.20;;;;;;5109452;28;20040;-85
2023/09/09 14:17:08;;;;;;;789.55;721.53;;;30.40;97.70;;;;;;5092526;28;20450;-84
2023/09/09 14:19:34;;;;;;;773.53;708.13;;;30.30;98.60;;;;;;5092568;28;20052;-85
2023/09/09 14:21:59;;;;;;;1076.65;990.80;;;30.10;98.10;;;;;;5093169;28;20098;-86
2023/09/09 14:24:25;;;;;;;768.50;706.17;;;30.20;99.30;;;;;;5077766;28;20056;-88
2023/09/09 14:27:32;;;;;;;1068.03;984.85;;;30.30;98.30;;;;;;5092864;28;20043;-90
2023/09/09 14:30:16;;;;;;;750.83;692.50;;;30.30;98.30;;;;;;5037040;28;20057;-88
2023/09/09 14:32:41;;;;;;;751.70;695.28;;;30.10;98.40;;;;;;5072872;28;20060;-87
2023/09/09 14:35:08;;;;;;;747.10;690.00;;;30.00;98.30;;;;;;5091602;28;20039;-87
2023/09/09 14:37:34;;;;;;;1053.80;975.22;;;29.80;99.10;;;;;;5091299;28;20055;-86
2023/09/09 14:39:59;;;;;;;739.60;686.08;;;29.50;99.50;;;;;;5091636;28;20048;-84
2023/09/09 14:42:25;;;;;;;1050.38;972.85;;;29.50;99.90;;;;;;5108660;28;20048;-85
2023/09/09 14:48:38;;;;;;;764.15;702.42;;;29.40;99.90;;;;;;5110529;28;20046;-82
2023/09/09 14:51:04;;;;;;;1069.13;986.25;;;29.30;99.90;;;;;;5110322;28;20039;-82
2023/09/09 14:53:30;;;;;;;1072.43;986.97;;;29.10;99.90;;;;;;5110461;28;20079;-82
2023/09/09 14:55:56;;;;;;;1076.85;992.03;;;29.00;99.90;;;;;;5111227;28;20091;-83
2023/09/09 14:58:23;;;;;;;768.75;705.45;;;28.90;99.90;;;;;;5109193;28;20050;-83
2023/09/09 15:00:49;;;;;;;756.35;696.97;;;28.90;99.90;;;;;;5110598;28;20078;-83
2023/09/09 15:03:14;;;;;;;1057.15;976.47;;;28.90;99.90;;;;;;5110418;28;20064;-83
2023/09/09 15:05:40;;;;;;;763.30;701.78;;;28.90;99.90;;;;;;5108688;28;20055;-82
2023/09/09 15:08:06;;;;;;;1047.82;969.97;;;28.80;99.90;;;;;;5109909;28;20048;-83
2023/09/09 15:10:32;;;;;;;1085.22;993.65;;;28.70;99.90;;;;;;5114562;28;20039;-85
2023/09/09 15:12:57;;;;;;;1069.95;981.72;;;28.60;99.90;;;;;;5128905;27;20113;-84
2023/09/09 15:15:23;;;;;;;1076.50;985.55;;;28.50;99.90;;;;;;5106761;28;20047;-85
2023/09/09 15:17:49;;;;;;;1068.03;979.90;;;28.40;99.90;;;;;;5120447;28;20043;-85
2023/09/09 15:20:15;;;;;;;1054.43;969.42;;;28.20;99.90;;;;;;5111632;28;20080;-85
2023/09/09 15:22:41;;;;;;;1021.25;945.13;;;27.90;99.90;;;;;;5094782;28;20396;-85
2023/09/09 15:25:07;;;;;;;736.95;680.63;;;27.60;99.90;;;;;;5094667;28;20079;-84
2023/09/09 15:27:33;;;;;;;1016.90;941.53;;;27.40;99.90;;;;;;5095893;28;20048;-83
2023/09/09 15:29:58;;;;;;;759.17;693.03;;;27.30;99.90;;;;;;5091436;28;20119;-83
2023/09/09 15:32:24;;;;;;;1054.40;964.95;;;27.00;99.90;;;;;;5086638;28;20040;-84
2023/09/09 15:34:51;;;;;;;1029.50;947.35;;;26.80;99.90;;;;;;5114815;28;20035;-84
2023/09/09 15:37:16;;;;;;;723.80;663.38;;;26.60;99.90;;;;;;5114297;28;20063;-84
2023/09/09 15:39:42;;;;;;;722.28;667.28;;;26.50;99.90;;;;;;5106637;28;20079;-84
2023/09/09 15:42:08;;;;;;;718.72;663.45;;;26.40;99.90;;;;;;5097614;28;20051;-81
2023/09/09 15:44:33;;;;;;;721.80;668.10;;;26.30;99.90;;;;;;5115704;28;20035;-84
2023/09/09 15:46:59;;;;;;;709.80;655.05;;;26.20;99.90;;;;;;5084085;28;20476;-84
2023/09/09 15:49:25;;;;;;;981.85;910.45;;;26.10;99.90;;;;;;5116002;28;20074;-83
2023/09/09 15:51:50;;;;;;;954.22;888.20;;;26.00;99.90;;;;;;5097242;28;20047;-84
2023/09/09 15:54:16;;;;;;;955.22;889.03;;;25.90;99.90;;;;;;5115677;28;20043;-83
2023/09/09 15:56:42;;;;;;;581.90;546.90;;;25.80;99.90;;;;;;5115417;28;20435;-84
2023/09/09 15:59:08;;;;;;;609.47;571.30;;;25.80;99.90;;;;;;5115471;28;20395;-84
2023/09/09 16:01:33;;;;;;;655.80;607.92;;;25.70;99.90;;;;;;5092196;28;20099;-84
2023/09/09 16:03:59;;;;;;;629.35;588.10;;;25.70;99.90;;;;;;5096499;28;20046;-84
2023/09/09 16:06:26;;;;;;;958.58;891.03;;;25.70;99.90;;;;;;5076334;28;20060;-84
2023/09/09 16:08:51;;;;;;;938.25;873.88;;;25.60;99.90;;;;;;5086367;27;20479;-83
2023/09/09 16:11:17;;;;;;;952.05;885.72;;;25.50;99.90;;;;;;5128481;27;20047;-84
2023/09/09 16:13:43;;;;;;;954.05;888.17;;;25.50;99.90;;;;;;5130001;27;20031;-84
2023/09/09 16:16:10;;;;;;;960.67;893.70;;;25.40;99.90;;;;;;5109980;28;20039;-83
2023/09/09 16:18:39;;;;;;;641.88;595.28;;;25.30;99.90;;;;;;5093580;28;20040;-85
2023/09/09 16:21:05;;;;;;;666.85;613.88;;;25.20;99.90;;;;;;5110262;28;20058;-83
2023/09/09 16:23:31;;;;;;;991.58;915.65;;;25.20;99.90;;;;;;5097037;28;20044;-86
2023/09/09 16:25:57;;;;;;;987.30;911.47;;;25.10;99.90;;;;;;5114004;28;20075;-85
2023/09/09 16:28:23;;;;;;;667.05;613.60;;;25.10;99.90;;;;;;5113340;28;20101;-84
2023/09/09 16:30:49;;;;;;;679.20;624.00;;;25.00;99.90;;;;;;5113475;28;20097;-86
2023/09/09 16:33:15;;;;;;;669.15;614.85;;;24.90;99.90;;;;;;5096226;28;20067;-86
2023/09/09 16:35:42;;;;;;;888.33;827.88;;;24.90;99.90;;;;;;5093616;28;20131;-86
2023/09/09 16:38:14;;;;;;;612.30;571.88;;;24.80;99.90;;;;;;5093364;28;20044;-85
2023/09/09 16:40:39;;;;;;;944.83;879.45;;;24.80;99.90;;;;;;5092773;28;20051;-84
2023/09/09 16:43:06;;;;;;;620.72;579.53;;;24.70;99.90;;;;;;5094125;28;20043;-83
2023/09/09 16:45:31;;;;;;;616.45;574.97;;;24.60;99.90;;;;;;5092828;28;20059;-84
2023/09/09 16:47:57;;;;;;;947.25;881.40;;;24.60;99.90;;;;;;5094228;28;20036;-83
2023/09/09 16:50:23;;;;;;;679.78;622.15;;;24.50;99.90;;;;;;5095412;28;20065;-84
2023/09/09 16:52:50;;;;;;;846.72;646.35;;;24.40;99.90;;;;;;5075326;28;20051;-84
2023/09/09 16:55:16;;;;;;;843.75;649.53;;;24.40;99.90;;;;;;5092961;28;20188;-84
2023/09/09 16:57:42;;;;;;;858.67;652.65;;;24.30;99.90;;;;;;5075667;28;20130;-84
2023/09/09 17:00:10;;;;;;;966.25;659.40;;;24.20;99.90;;;;;;5092421;28;20051;-84
2023/09/09 17:02:37;;;;;;;972.90;652.40;;;24.10;99.90;;;;;;5092987;28;20046;-85
2023/09/09 17:05:03;;;;;;;1153.50;933.03;;;24.10;99.90;;;;;;5093790;28;20040;-83
2023/09/09 17:07:29;;;;;;;931.83;651.70;;;24.00;99.90;;;;;;5075436;28;20067;-84
2023/09/09 17:09:55;;;;;;;926.50;654.78;;;23.90;99.90;;;;;;5075790;28;20130;-84
2023/09/09 17:12:24;;;;;;;1007.72;650.47;;;23.80;99.90;;;;;;5092378;28;20097;-83
2023/09/09 17:14:53;;;;;;;1009.33;655.45;;;23.70;99.90;;;;;;5093481;28;20046;-84
2023/09/09 17:17:19;;;;;;;1197.43;907.45;;;23.60;99.90;;;;;;5092243;28;20123;-83
2023/09/09 17:19:45;;;;;;;1242.15;919.08;;;23.50;99.90;;;;;;5092549;28;20189;-84
2023/09/09 17:22:11;;;;;;;1241.40;919.45;;;23.50;99.90;;;;;;5094409;28;20389;-83
2023/09/09 17:24:37;;;;;;;1042.85;651.17;;;23.40;99.90;;;;;;5093681;28;20454;-83
2023/09/09 17:27:03;;;;;;;1013.33;907.45;;;23.40;99.90;;;;;;5075144;28;20044;-83
2023/09/09 17:29:28;;;;;;;1006.83;902.40;;;23.30;99.90;;;;;;5092063;28;20500;-83
2023/09/09 17:31:54;;;;;;;994.25;896.72;;;23.20;99.90;;;;;;5092119;28;20131;-83
2023/09/09 17:34:20;;;;;;;978.83;884.40;;;23.10;99.90;;;;;;5093213;28;20127;-83
2023/09/09 17:36:45;;;;;;;985.08;890.10;;;23.00;99.90;;;;;;5091585;28;20032;-83
2023/09/09 17:39:20;;;;;;;979.17;884.67;;;22.90;99.90;;;;;;5093075;28;20248;-83
2023/09/09 17:41:46;;;;;;;982.27;889.73;;;22.80;99.90;;;;;;5092814;28;20083;-83
2023/09/09 17:44:11;;;;;;;691.42;620.33;;;22.70;99.90;;;;;;5092815;28;20329;-83
2023/09/09 17:46:37;;;;;;;971.85;879.72;;;22.60;99.90;;;;;;5093087;28;20040;-83
2023/09/09 17:49:04;;;;;;;695.20;622.22;;;22.40;99.90;;;;;;5093113;28;20058;-83
2023/09/09 17:51:33;;;;;;;971.00;878.75;;;22.40;99.90;;;;;;5108494;28;20039;-83
2023/09/09 17:53:59;;;;;;;981.03;883.85;;;22.30;99.90;;;;;;5091766;28;20032;-83
2023/09/09 17:56:24;;;;;;;991.45;884.75;;;22.20;99.90;;;;;;5092897;28;20115;-83
2023/09/09 17:58:52;;;;;;;976.20;879.05;;;22.20;99.90;;;;;;5093119;28;20614;-83
2023/09/09 18:01:25;;;;;;;962.60;867.20;;;22.10;99.90;;;;;;5093148;28;20070;-83
2023/09/09 18:03:53;;;;;;;978.78;881.83;;;22.10;99.90;;;;;;5092834;28;20111;-82
2023/09/09 18:06:22;;;;;;;699.20;620.30;;;22.00;99.90;;;;;;5091500;28;20056;-83
2023/09/09 18:08:52;;;;;;;971.28;870.42;;;21.80;99.90;;;;;;5092615;28;20048;-83
2023/09/09 18:11:19;;;;;;;734.00;596.13;;;21.80;99.90;;;;;;5091212;28;20147;-83
2023/09/09 18:13:47;;;;;;;732.70;600.40;;;21.70;99.90;;;;;;5092974;28;20040;-83
2023/09/09 18:16:14;;;;;;;761.65;599.00;;;21.50;99.90;;;;;;5092820;28;20056;-83
2023/09/09 18:18:39;;;;;;;1018.50;860.92;;;21.50;99.90;;;;;;5091763;28;20391;-83
2023/09/09 18:21:05;;;;;;;877.65;594.83;;;21.40;99.90;;;;;;5074670;28;20044;-83
2023/09/09 18:23:31;;;;;;;887.55;596.42;;;21.30;99.90;;;;;;5091703;28;20036;-83
2023/09/09 18:26:00;;;;;;;916.88;585.67;;;21.20;99.90;;;;;;5092788;28;20504;-83
2023/09/09 18:28:27;;;;;;;958.22;597.22;;;21.20;99.90;;;;;;5091454;28;20073;-83
2023/09/09 18:31:02;;;;;;;967.55;598.78;;;21.10;99.90;;;;;;5092165;28;20080;-83
2023/09/09 18:33:29;;;;;;;1181.82;846.80;;;21.10;99.90;;;;;;5092571;28;20119;-83
2023/09/09 18:35:56;;;;;;;1003.08;595.75;;;21.00;99.90;;;;;;5075116;28;20121;-83
2023/09/09 18:38:23;;;;;;;1011.45;599.92;;;20.90;99.90;;;;;;5073938;28;20048;-84
2023/09/09 18:40:50;;;;;;;1049.07;593.60;;;20.80;99.90;;;;;;5074722;28;20480;-85
2023/09/09 18:43:16;;;;;;;1279.72;842.85;;;20.70;99.90;;;;;;5094985;28;20044;-83
2023/09/09 18:45:43;;;;;;;1118.10;594.60;;;20.70;99.90;;;;;;5106906;28;20050;-83
2023/09/09 18:48:09;;;;;;;1161.45;612.17;;;20.60;99.90;;;;;;5092833;28;20053;-83
2023/09/09 18:50:35;;;;;;;1182.55;603.03;;;20.50;99.90;;;;;;5093137;28;20049;-83
2023/09/09 18:53:01;;;;;;;1163.57;611.40;;;20.40;99.90;;;;;;5094731;28;20032;-83
2023/09/09 18:55:27;;;;;;;1158.80;592.75;;;20.40;99.90;;;;;;5095615;28;20079;-83